Time;durP1;ratioP1;P1;durP2;ratioP2;P2;SDS_P1;SDS_P2;PMS_P1;PMS_P2;Temp;Humidity;BMP_temperature;BMP_pressure;BME280_temperature;BME280_humidity;BME280_pressure;Samples;Min_cycle;Max_cycle;Signal;HPM_P1;HPM_P2
2022/12/29 00:02:59;;;;;;;4.50;2.20;;;;;;;12.97;43.89;99046.03;10432530;28;20276;-68
2022/12/29 00:08:01;;;;;;;2.90;2.43;;;;;;;12.96;43.63;99040.88;10425543;28;20247;-68
2022/12/29 00:18:23;;;;;;;4.73;2.70;;;;;;;13.13;43.89;99076.91;10474011;28;20234;-68
2022/12/29 00:44:50;;;;;;;3.53;2.30;;;;;;;14.18;43.68;99034.97;10433375;28;20243;-68
2022/12/29 00:49:52;;;;;;;4.10;2.73;;;;;;;13.46;44.50;99043.59;10438073;28;20861;-68
2022/12/29 00:54:53;;;;;;;4.97;2.10;;;;;;;13.10;45.64;99061.22;10431989;28;20511;-68
2022/12/29 00:59:55;;;;;;;3.97;2.30;;;;;;;13.04;46.07;99040.59;10428108;28;20235;-68
2022/12/29 01:04:57;;;;;;;3.97;2.40;;;;;;;12.61;46.59;99066.31;10427600;28;20233;-68
2022/12/29 01:10:10;;;;;;;3.13;2.20;;;;;;;13.25;45.90;99050.16;10441880;28;20253;-67
2022/12/29 01:15:14;;;;;;;3.07;2.20;;;;;;;13.23;45.88;99052.25;10474321;28;20617;-67
2022/12/29 01:20:15;;;;;;;3.80;2.67;;;;;;;14.15;44.34;99001.25;10476256;28;20311;-67
2022/12/29 01:25:18;;;;;;;6.63;2.43;;;;;;;13.32;45.18;99029.47;10474548;28;20260;-67
2022/12/29 01:30:20;;;;;;;3.33;2.10;;;;;;;14.28;44.90;98996.75;10472943;28;20235;-67
2022/12/29 01:35:21;;;;;;;5.17;2.50;;;;;;;13.15;46.24;99034.53;10468530;28;20231;-67
2022/12/29 01:40:24;;;;;;;2.93;2.03;;;;;;;13.39;45.65;99032.91;10478980;28;20235;-67
2022/12/29 01:45:25;;;;;;;3.73;2.13;;;;;;;13.50;45.81;99003.63;10463131;28;20240;-67
2022/12/29 01:50:33;;;;;;;2.43;2.20;;;;;;;14.13;45.05;98965.69;10433400;28;20296;-67
2022/12/29 01:55:42;;;;;;;3.63;2.57;;;;;;;12.90;46.24;99029.16;10435636;28;20485;-67
2022/12/29 02:00:44;;;;;;;2.30;2.03;;;;;;;13.10;46.06;99002.94;10433974;28;20650;-67
2022/12/29 02:06:15;;;;;;;2.43;2.23;;;;;;;13.34;45.75;98983.56;10430239;28;20314;-67
2022/12/29 02:11:19;;;;;;;2.60;2.00;;;;;;;12.95;46.56;99010.53;10449862;28;20762;-67
2022/12/29 02:17:06;;;;;;;2.50;2.30;;;;;;;13.43;45.58;98980.38;10460779;28;20239;-67
2022/12/29 02:22:38;;;;;;;2.10;1.83;;;;;;;13.32;46.17;98997.22;10435808;28;20240;-67
2022/12/29 02:28:12;;;;;;;3.33;2.00;;;;;;;13.74;45.41;98967.81;10432472;28;20228;-67
2022/12/29 02:33:47;;;;;;;2.60;1.90;;;;;;;13.28;46.63;98986.09;10455856;28;20231;-67
2022/12/29 02:39:06;;;;;;;4.00;1.77;;;;;;;12.81;46.84;98964.16;10461132;28;20231;-67
2022/12/29 02:44:32;;;;;;;3.33;2.03;;;;;;;13.39;47.32;98935.34;10466978;28;20681;-67
2022/12/29 02:50:00;;;;;;;2.77;2.20;;;;;;;13.15;46.86;98951.25;10467320;28;20330;-67
2022/12/29 02:55:02;;;;;;;2.77;2.17;;;;;;;12.04;47.57;98950.00;10473508;28;20278;-67
2022/12/29 03:00:07;;;;;;;2.77;2.10;;;;;;;13.03;46.37;98964.59;10474200;28;20231;-67
2022/12/29 03:05:12;;;;;;;2.73;1.80;;;;;;;12.69;46.76;98971.28;10462112;28;20241;-67
2022/12/29 03:10:19;;;;;;;1.87;1.77;;;;;;;13.63;45.72;98942.53;10471650;28;20235;-67
2022/12/29 03:16:03;;;;;;;2.50;1.70;;;;;;;13.01;46.89;98939.84;10478449;28;20246;-67
2022/12/29 03:21:11;;;;;;;5.37;2.13;;;;;;;13.05;47.27;98930.28;10468770;28;20230;-67
2022/12/29 03:26:15;;;;;;;4.07;2.10;;;;;;;12.40;46.87;98973.53;10474025;28;20231;-67
2022/12/29 03:31:18;;;;;;;2.40;2.13;;;;;;;13.84;45.65;98924.25;10471395;28;20279;-67
2022/12/29 03:36:29;;;;;;;1.90;1.80;;;;;;;12.66;46.63;98948.38;10471598;28;20239;-67
2022/12/29 03:41:34;;;;;;;4.07;1.77;;;;;;;11.95;47.34;98928.81;10475019;28;20643;-67
2022/12/29 03:46:35;;;;;;;1.60;1.50;;;;;;;12.44;47.20;98909.53;10476255;28;20242;-67
2022/12/29 03:51:37;;;;;;;1.80;1.60;;;;;;;12.14;47.85;98929.72;10474872;28;20241;-67
2022/12/29 03:56:39;;;;;;;2.80;2.13;;;;;;;12.87;46.62;98917.66;10481436;28;20231;-67
2022/12/29 04:01:40;;;;;;;1.53;1.43;;;;;;;11.04;48.11;98909.09;10476052;28;20231;-67
2022/12/29 04:06:42;;;;;;;1.93;1.77;;;;;;;12.90;45.59;98940.53;10480770;28;20778;-67
2022/12/29 04:11:44;;;;;;;1.90;1.80;;;;;;;11.23;47.19;98896.69;10480727;28;20239;-67
2022/12/29 04:16:45;;;;;;;2.53;2.00;;;;;;;12.45;46.76;98938.81;10479165;28;20607;-66
2022/12/29 04:21:47;;;;;;;3.00;2.10;;;;;;;12.90;46.12;98901.09;10473025;28;20233;-67
2022/12/29 04:26:49;;;;;;;4.13;1.97;;;;;;;12.51;46.16;98939.84;10474172;28;20226;-67
2022/12/29 04:31:50;;;;;;;3.07;2.00;;;;;;;12.67;45.87;98906.25;10456167;28;20236;-67
2022/12/29 04:36:52;;;;;;;2.10;1.90;;;;;;;13.16;46.17;98896.50;10443301;28;20246;-74
2022/12/29 04:41:54;;;;;;;1.80;1.70;;;;;;;10.97;48.63;98894.91;10475614;28;20227;-67
2022/12/29 04:46:55;;;;;;;3.17;2.00;;;;;;;12.10;47.78;98936.56;10474328;28;20251;-67
2022/12/29 04:51:57;;;;;;;1.70;1.60;;;;;;;11.39;48.93;98929.44;10471745;28;20227;-68
2022/12/29 04:56:59;;;;;;;1.97;1.87;;;;;;;11.92;47.77;98933.78;10475603;28;20262;-67
2022/12/29 05:05:19;;;;;;;4.30;1.90;;;;;;;8.80;53.80;98953.31;10470804;28;20798;-65
2022/12/29 05:10:21;;;;;;;3.57;2.10;;;;;;;9.84;52.57;98879.59;10463220;28;20228;-65
2022/12/29 05:15:23;;;;;;;2.77;2.50;;;;;;;9.91;52.37;98874.28;10472031;28;20239;-65
2022/12/29 05:20:25;;;;;;;3.20;2.00;;;;;;;9.67;52.24;98918.34;10469495;28;20239;-65
2022/12/29 05:25:26;;;;;;;2.90;2.00;;;;;;;10.01;51.81;98912.13;10464091;28;20720;-63
2022/12/29 05:30:28;;;;;;;2.17;1.97;;;;;;;9.74;51.62;98930.72;10470706;28;20808;-64
2022/12/29 05:35:30;;;;;;;2.10;2.00;;;;;;;10.19;51.08;98903.53;10468299;28;20715;-64
2022/12/29 05:40:31;;;;;;;3.20;2.80;;;;;;;10.43;50.81;98894.09;10468036;28;20246;-64
2022/12/29 05:45:33;;;;;;;3.67;2.50;;;;;;;10.29;50.76;98908.47;10467169;28;20748;-64
2022/12/29 05:50:35;;;;;;;2.20;2.10;;;;;;;9.92;51.21;98922.19;10468801;28;20653;-64
2022/12/29 05:55:36;;;;;;;2.20;2.00;;;;;;;9.78;51.95;98913.25;10466263;28;20250;-64
2022/12/29 06:00:44;;;;;;;3.47;2.60;;;;;;;10.22;51.55;98873.69;10462836;28;20227;-64
2022/12/29 06:05:46;;;;;;;8.90;2.57;;;;;;;10.18;51.17;98885.84;10461959;28;21022;-64
2022/12/29 06:10:47;;;;;;;3.27;2.63;;;;;;;10.51;50.99;98856.44;10464131;28;20236;-64
2022/12/29 06:15:50;;;;;;;2.57;2.37;;;;;;;10.82;50.22;98846.97;10441460;28;20243;-64
2022/12/29 06:20:51;;;;;;;3.13;2.50;;;;;;;10.50;50.53;98873.50;10438600;28;20238;-64
2022/12/29 06:25:53;;;;;;;3.67;2.30;;;;;;;10.47;50.78;98849.03;10438765;28;20232;-64
2022/12/29 06:30:55;;;;;;;2.60;2.40;;;;;;;10.65;50.57;98841.19;10436060;28;20227;-64
2022/12/29 06:35:57;;;;;;;3.50;2.70;;;;;;;11.51;48.97;98827.78;10442100;28;20231;-64
2022/12/29 06:40:58;;;;;;;2.80;2.27;;;;;;;10.19;50.02;98902.69;10433214;28;20242;-64
2022/12/29 06:46:00;;;;;;;2.93;2.33;;;;;;;10.78;49.33;98885.88;10424658;28;20236;-64
2022/12/29 06:51:02;;;;;;;4.13;2.70;;;;;;;11.27;48.02;98867.63;10435442;28;20303;-64
2022/12/29 06:56:04;;;;;;;3.30;2.80;;;;;;;11.37;48.16;98876.06;10433019;28;20937;-64
2022/12/29 07:01:06;;;;;;;4.23;2.60;;;;;;;9.81;51.20;98948.63;10435013;28;20224;-64
2022/12/29 07:06:08;;;;;;;3.37;2.30;;;;;;;10.66;49.65;98904.38;10432815;28;20240;-64
2022/12/29 07:11:09;;;;;;;2.63;2.43;;;;;;;10.98;49.37;98923.31;10432494;28;20234;-64
2022/12/29 07:16:11;;;;;;;3.30;2.30;;;;;;;11.32;48.23;98912.53;10439090;28;20232;-64
2022/12/29 07:21:13;;;;;;;4.50;2.47;;;;;;;11.65;47.75;98907.09;10433532;28;20228;-64
2022/12/29 07:26:17;;;;;;;3.90;2.50;;;;;;;10.82;48.68;98945.97;10443942;28;20285;-64
2022/12/29 07:31:22;;;;;;;4.77;2.50;;;;;;;11.69;48.04;98897.56;10432489;28;20228;-64
2022/12/29 07:36:24;;;;;;;7.23;2.60;;;;;;;12.27;47.05;98919.97;10435438;28;20719;-64
2022/12/29 07:41:32;;;;;;;5.23;2.70;;;;;;;11.25;48.55;98931.28;10432315;28;20739;-64
2022/12/29 07:46:34;;;;;;;4.80;2.67;;;;;;;11.35;48.24;98952.28;10430191;28;20240;-64
2022/12/29 07:51:56;;;;;;;3.50;2.60;;;;;;;10.91;48.52;98970.69;10438860;28;20292;-64
2022/12/29 07:56:59;;;;;;;3.97;3.00;;;;;;;10.99;48.78;98977.69;10430260;28;20236;-64
2022/12/29 08:02:01;;;;;;;6.30;3.37;;;;;;;11.70;47.46;98950.16;10431777;28;20581;-64
2022/12/29 08:07:03;;;;;;;4.37;3.43;;;;;;;11.28;48.26;98963.00;10430472;28;20235;-64
2022/12/29 08:12:05;;;;;;;2.60;2.40;;;;;;;11.65;47.40;98967.91;10427273;28;20250;-64
2022/12/29 08:17:07;;;;;;;3.30;3.00;;;;;;;11.86;46.96;98972.16;10432395;28;20236;-64
2022/12/29 08:22:09;;;;;;;3.10;2.70;;;;;;;11.79;47.21;98980.22;10429959;28;20235;-64
2022/12/29 08:27:10;;;;;;;4.17;2.60;;;;;;;11.01;47.50;99029.97;10430636;28;20236;-64
2022/12/29 08:32:21;;;;;;;3.87;2.77;;;;;;;11.35;47.82;99038.00;10427088;28;20231;-64
2022/12/29 08:37:23;;;;;;;2.97;2.60;;;;;;;10.70;48.94;99065.34;10428708;28;20793;-64
2022/12/29 08:42:32;;;;;;;5.37;2.83;;;;;;;11.60;47.40;99016.72;10433308;28;20294;-64
2022/12/29 08:47:33;;;;;;;7.13;5.03;;;;;;;11.16;48.27;99069.94;10429991;28;20236;-64
2022/12/29 08:52:35;;;;;;;4.80;2.50;;;;;;;11.51;47.95;99031.41;10429776;28;20721;-64
2022/12/29 08:57:36;;;;;;;3.77;3.03;;;;;;;12.09;46.62;98998.44;10435062;28;20275;-64
2022/12/29 09:02:38;;;;;;;5.63;3.13;;;;;;;12.14;46.66;99020.09;10431285;28;20897;-64
2022/12/29 09:07:40;;;;;;;3.40;2.90;;;;;;;12.54;46.80;99022.59;10439165;28;20259;-64
2022/12/29 09:12:42;;;;;;;4.57;3.23;;;;;;;12.61;46.97;99033.28;10432486;28;20238;-64
2022/12/29 09:17:46;;;;;;;5.13;2.70;;;;;;;12.18;47.72;99056.16;10440016;28;20234;-64
2022/12/29 09:22:49;;;;;;;3.73;2.40;;;;;;;12.73;46.67;99059.19;10427259;28;20231;-64
2022/12/29 09:27:55;;;;;;;4.07;2.40;;;;;;;13.18;47.00;99050.22;10429036;28;20244;-64
2022/12/29 09:32:56;;;;;;;16.13;11.47;;;;;;;13.06;46.70;99050.09;10423836;28;20742;-64
2022/12/29 09:37:58;;;;;;;2.90;2.37;;;;;;;12.54;47.47;99077.09;10434684;28;20231;-64
2022/12/29 09:43:16;;;;;;;3.00;2.60;;;;;;;13.39;46.46;99058.94;10432121;28;20232;-65
2022/12/29 09:48:23;;;;;;;4.17;2.80;;;;;;;12.90;47.42;99061.38;10435904;28;20713;-64
2022/12/29 09:53:38;;;;;;;6.20;3.60;;;;;;;13.41;46.67;99067.59;10440239;28;20235;-64
2022/12/29 09:58:50;;;;;;;5.40;4.23;;;;;;;13.58;48.05;99068.72;10434563;28;20236;-65
2022/12/29 10:03:55;;;;;;;4.73;3.50;;;;;;;12.95;49.26;99058.03;10441079;28;20231;-64
2022/12/29 10:09:35;;;;;;;5.87;3.77;;;;;;;13.09;48.95;99041.63;10439444;28;20282;-64
2022/12/29 10:14:58;;;;;;;7.60;5.63;;;;;;;13.96;47.77;99056.91;10409754;28;20244;-64
2022/12/29 10:20:12;;;;;;;4.53;3.10;;;;;;;12.18;50.06;99066.88;10434641;28;20606;-64
2022/12/29 10:25:20;;;;;;;4.47;3.10;;;;;;;13.56;47.58;99046.56;10436191;28;20570;-64
2022/12/29 10:30:22;;;;;;;5.23;3.47;;;;;;;13.43;47.79;99038.66;10441085;28;20232;-64
2022/12/29 10:35:35;;;;;;;8.93;4.53;;;;;;;13.70;47.32;99049.13;10433649;28;20788;-64
2022/12/29 10:40:42;;;;;;;9.50;5.67;;;;;;;13.22;48.10;99045.22;10432911;28;20749;-64
2022/12/29 10:45:44;;;;;;;3.07;2.77;;;;;;;12.27;48.97;99088.94;10427852;28;20240;-64
2022/12/29 10:50:47;;;;;;;5.80;3.77;;;;;;;11.96;48.87;99077.91;10436471;28;20259;-64
2022/12/29 10:55:49;;;;;;;5.10;4.07;;;;;;;12.52;47.10;99063.06;10441827;28;20235;-64
2022/12/29 11:06:24;;;;;;;6.60;4.80;;;;;;;9.96;52.41;99117.69;10539866;27;20821;-65
2022/12/29 11:11:33;;;;;;;8.63;5.60;;;;;;;10.57;51.26;99113.47;10455088;28;20232;-65
2022/12/29 11:16:35;;;;;;;15.13;11.63;;;;;;;11.55;50.14;99056.72;10453468;28;20250;-65
2022/12/29 11:21:41;;;;;;;6.07;5.03;;;;;;;12.06;48.83;99042.59;10454387;28;20247;-66
2022/12/29 11:26:44;;;;;;;3.60;3.00;;;;;;;12.23;48.48;99053.66;10444016;28;20738;-65
2022/12/29 11:31:52;;;;;;;3.87;2.60;;;;;;;12.52;48.25;99063.06;10451241;28;20395;-65
2022/12/29 11:37:02;;;;;;;4.43;2.67;;;;;;;12.13;48.59;99074.75;10450874;28;20231;-65
2022/12/29 11:42:12;;;;;;;7.67;3.70;;;;;;;12.41;48.24;99065.56;10454504;28;20223;-65
2022/12/29 11:47:23;;;;;;;6.10;3.30;;;;;;;11.98;48.73;99083.06;10449710;28;20253;-65
2022/12/29 11:52:28;;;;;;;4.50;3.20;;;;;;;11.41;49.18;99098.78;10447493;28;20228;-65
2022/12/29 11:57:34;;;;;;;4.40;2.80;;;;;;;12.47;48.14;99059.34;10444825;28;20240;-65
2022/12/29 12:02:47;;;;;;;3.63;2.47;;;;;;;11.32;49.70;99084.78;10477321;28;20224;-65
2022/12/29 12:08:00;;;;;;;3.40;2.10;;;;;;;12.35;48.69;99061.84;10489005;28;20256;-65
2022/12/29 12:13:14;;;;;;;4.27;3.27;;;;;;;12.99;48.29;99052.03;10498663;28;20231;-65
2022/12/29 12:18:18;;;;;;;2.80;2.30;;;;;;;11.95;49.47;99070.91;10477277;28;20228;-66
2022/12/29 12:23:28;;;;;;;2.40;2.20;;;;;;;11.86;49.59;99058.78;10468968;28;20228;-65
2022/12/29 12:28:46;;;;;;;16.00;12.17;;;;;;;11.85;49.84;99080.41;10474304;28;20601;-65
2022/12/29 12:33:54;;;;;;;22.97;16.13;;;;;;;12.18;49.63;99046.28;10476503;28;20227;-65
2022/12/29 12:39:04;;;;;;;5.60;3.90;;;;;;;12.18;50.02;99059.69;10463433;28;20238;-65
2022/12/29 12:44:24;;;;;;;5.93;3.80;;;;;;;11.73;50.35;99070.34;10471486;28;20227;-65
2022/12/29 12:49:36;;;;;;;8.00;5.53;;;;;;;12.83;49.06;99036.44;10474492;28;20231;-65
2022/12/29 12:54:55;;;;;;;5.97;3.40;;;;;;;12.14;50.53;99049.59;10471967;28;20236;-65
2022/12/29 12:59:59;;;;;;;6.00;4.07;;;;;;;12.98;49.05;99022.72;10473813;28;20251;-65
2022/12/29 13:05:28;;;;;;;7.40;5.13;;;;;;;13.37;48.65;99028.78;10473965;28;20238;-65
2022/12/29 13:10:37;;;;;;;58.00;40.13;;;;;;;13.28;48.88;99021.03;10458465;28;20944;-65
2022/12/29 13:15:53;;;;;;;25.30;16.97;;;;;;;11.94;50.90;99046.97;10458756;28;20235;-65
2022/12/29 13:21:12;;;;;;;14.67;9.84;;;;;;;11.03;52.64;99043.97;9984841;28;10001286;-65
2022/12/29 13:26:27;;;;;;;13.40;7.70;;;;;;;11.84;52.06;99025.97;10394818;28;20252;-65
2022/12/29 13:31:52;;;;;;;37.27;25.80;;;;;;;11.09;54.26;99062.94;10390136;28;20252;-65
2022/12/29 13:36:59;;;;;;;11.00;8.67;;;;;;;11.16;54.12;99063.78;10389648;28;20332;-65
2022/12/29 13:42:04;;;;;;;8.27;5.70;;;;;;;11.61;53.55;99005.81;10392734;28;20232;-65
2022/12/29 13:47:41;;;;;;;9.43;8.40;;;;;;;10.22;56.97;99060.03;10391002;28;20240;-65
2022/12/29 13:53:07;;;;;;;9.77;7.20;;;;;;;10.93;56.97;99021.31;10391794;28;20229;-65
2022/12/29 13:58:18;;;;;;;7.23;5.20;;;;;;;10.47;57.50;99054.97;10391549;28;20243;-65
2022/12/29 14:03:41;;;;;;;4.47;4.00;;;;;;;9.80;59.27;99078.72;10384774;28;20252;-65
2022/12/29 14:08:44;;;;;;;4.20;3.50;;;;;;;9.88;57.67;99072.44;10383404;28;20955;-65
2022/12/29 14:13:48;;;;;;;5.37;4.00;;;;;;;9.86;58.00;99085.97;10389243;28;20225;-65
2022/12/29 14:18:50;;;;;;;21.47;15.60;;;;;;;10.46;56.84;99080.91;10399373;28;20607;-65
2022/12/29 14:23:53;;;;;;;6.20;5.23;;;;;;;10.29;57.67;99090.28;10397353;28;20604;-65
2022/12/29 14:28:55;;;;;;;6.13;3.50;;;;;;;10.38;57.78;99064.19;10392751;28;20254;-65
2022/12/29 14:34:11;;;;;;;6.10;4.50;;;;;;;10.58;56.71;99046.38;10388046;28;20237;-65
2022/12/29 14:39:31;;;;;;;5.00;4.27;;;;;;;10.76;56.29;99071.75;10391028;28;20828;-65
2022/12/29 14:44:34;;;;;;;8.13;5.20;;;;;;;10.21;56.75;99096.66;10395880;28;20235;-65
2022/12/29 14:49:44;;;;;;;5.73;4.97;;;;;;;10.47;56.44;99105.81;10396700;28;20229;-65
2022/12/29 14:54:51;;;;;;;9.77;7.10;;;;;;;11.70;54.58;99076.09;10396855;28;20251;-65
2022/12/29 15:00:02;;;;;;;7.67;5.10;;;;;;;11.27;55.01;99087.22;10388795;28;20228;-65
2022/12/29 15:05:06;;;;;;;4.30;3.53;;;;;;;11.75;54.39;99111.16;10394331;28;20236;-65
2022/12/29 15:10:15;;;;;;;7.47;5.03;;;;;;;10.60;55.90;99121.09;10391876;28;20242;-65
2022/12/29 15:15:24;;;;;;;4.77;3.63;;;;;;;12.29;53.39;99127.13;10386112;28;20230;-64
2022/12/29 15:20:31;;;;;;;2.77;2.40;;;;;;;11.74;53.87;99130.13;10356891;28;20612;-65
2022/12/29 15:25:32;;;;;;;9.07;4.60;;;;;;;11.22;55.05;99154.81;10361864;28;20239;-65
2022/12/29 15:30:34;;;;;;;3.53;2.20;;;;;;;11.67;53.63;99151.56;10393572;28;20236;-64
2022/12/29 15:35:37;;;;;;;4.77;2.60;;;;;;;11.94;53.18;99167.63;10395965;28;20242;-64
2022/12/29 15:40:39;;;;;;;2.67;2.30;;;;;;;11.82;53.47;99178.16;10383498;28;20343;-63
2022/12/29 15:45:41;;;;;;;3.03;2.43;;;;;;;11.83;53.32;99197.72;10360025;28;20294;-65
2022/12/29 15:50:43;;;;;;;2.87;2.30;;;;;;;12.05;52.33;99196.50;10393122;28;20327;-65
2022/12/29 15:55:47;;;;;;;3.30;2.40;;;;;;;11.58;52.58;99217.09;10400660;28;20324;-64
2022/12/29 16:00:52;;;;;;;2.30;2.07;;;;;;;10.66;55.04;99254.91;10397520;28;20235;-65
2022/12/29 16:06:16;;;;;;;5.10;2.70;;;;;;;12.30;52.14;99236.06;10398268;28;20328;-65
2022/12/29 16:11:27;;;;;;;3.57;2.80;;;;;;;11.93;51.99;99235.66;10369245;28;20244;-65
2022/12/29 16:16:36;;;;;;;4.03;2.40;;;;;;;10.75;52.81;99262.75;10399183;28;20232;-65
2022/12/29 16:21:38;;;;;;;2.77;2.50;;;;;;;11.88;51.88;99259.59;10391758;28;20275;-64
2022/12/29 16:26:49;;;;;;;4.00;2.80;;;;;;;11.85;52.33;99260.03;10397286;28;20247;-65
2022/12/29 16:32:05;;;;;;;3.50;2.60;;;;;;;11.02;54.09;99294.00;10399237;28;20236;-63
2022/12/29 16:37:33;;;;;;;4.13;2.50;;;;;;;12.22;51.95;99274.66;10397991;28;20235;-64
2022/12/29 16:42:36;;;;;;;3.93;2.70;;;;;;;12.09;51.60;99280.84;10398262;28;20282;-64
2022/12/29 16:47:38;;;;;;;3.07;2.50;;;;;;;10.86;54.58;99291.66;10395599;28;20642;-64
2022/12/29 16:52:40;;;;;;;4.43;2.70;;;;;;;11.43;52.94;99257.47;10396730;28;20239;-64
2022/12/29 16:57:44;;;;;;;6.13;3.43;;;;;;;11.20;52.90;99257.81;10397912;28;20236;-64
2022/12/29 17:02:46;;;;;;;4.03;2.90;;;;;;;12.05;51.27;99287.66;10396813;28;20739;-65
2022/12/29 17:07:48;;;;;;;3.77;2.63;;;;;;;11.69;51.91;99294.22;10399112;28;20733;-63
2022/12/29 17:12:50;;;;;;;2.67;2.33;;;;;;;11.17;53.84;99306.41;10395554;28;20243;-64
2022/12/29 17:17:54;;;;;;;5.53;2.83;;;;;;;12.24;51.55;99317.38;10398306;28;20665;-64
2022/12/29 17:22:58;;;;;;;6.80;2.70;;;;;;;11.57;52.28;99301.19;10394033;28;20245;-64
2022/12/29 17:28:03;;;;;;;4.00;2.83;;;;;;;11.89;52.30;99322.91;10395496;28;20243;-64
2022/12/29 17:33:10;;;;;;;6.73;3.53;;;;;;;11.31;52.51;99345.63;10393854;28;20361;-64
2022/12/29 17:38:20;;;;;;;3.57;2.90;;;;;;;11.74;52.66;99329.31;10394845;28;20228;-64
2022/12/29 17:43:22;;;;;;;2.97;2.37;;;;;;;11.36;52.15;99323.59;10398831;28;20232;-64
2022/12/29 17:48:24;;;;;;;3.07;2.40;;;;;;;11.66;52.87;99321.44;10393864;28;20271;-64
2022/12/29 17:53:28;;;;;;;5.20;2.60;;;;;;;11.81;51.70;99340.00;10398557;28;20224;-64
2022/12/29 17:58:31;;;;;;;5.43;2.90;;;;;;;11.69;51.65;99315.66;10397287;28;20231;-65
2022/12/29 18:03:36;;;;;;;8.87;2.90;;;;;;;12.01;51.43;99323.94;10361297;28;20226;-65
2022/12/29 18:08:40;;;;;;;8.23;4.70;;;;;;;11.80;52.28;99323.13;10347942;28;20244;-66
2022/12/29 18:13:41;;;;;;;4.67;2.40;;;;;;;11.76;51.78;99319.19;10350124;28;20232;-66
2022/12/29 18:18:47;;;;;;;2.73;2.10;;;;;;;11.85;51.11;99324.38;10351990;28;20298;-65
2022/12/29 18:23:49;;;;;;;3.73;2.50;;;;;;;11.62;51.72;99328.19;10391469;28;20237;-66
2022/12/29 18:28:52;;;;;;;3.47;2.20;;;;;;;10.75;52.32;99321.63;10397766;28;20328;-66
2022/12/29 18:33:56;;;;;;;3.63;2.40;;;;;;;11.18;52.82;99337.53;10388610;28;20244;-66
2022/12/29 18:38:57;;;;;;;5.13;2.10;;;;;;;10.37;53.68;99327.34;10395140;28;20229;-65
2022/12/29 18:43:59;;;;;;;5.50;2.80;;;;;;;12.18;50.64;99362.78;10394256;28;20246;-65
2022/12/29 18:49:01;;;;;;;6.27;2.50;;;;;;;11.98;51.18;99351.22;10392082;28;20245;-65
2022/12/29 18:54:02;;;;;;;3.50;2.20;;;;;;;11.25;53.81;99330.34;10394078;28;20263;-65
2022/12/29 18:59:04;;;;;;;4.60;2.43;;;;;;;9.92;56.15;99346.28;10397064;28;20236;-66
2022/12/29 19:04:06;;;;;;;5.57;2.60;;;;;;;10.68;54.35;99330.44;10389281;28;20236;-65
2022/12/29 19:09:07;;;;;;;3.90;2.23;;;;;;;9.30;55.99;99287.03;10395856;28;20241;-65
2022/12/29 19:19:18;;;;;;;2.93;1.87;;;;;;;8.60;59.07;99272.38;10310247;28;20233;-38
2022/12/29 19:24:20;;;;;;;2.87;2.30;;;;;;;9.46;57.30;99334.06;10351277;28;20235;-38
2022/12/29 19:29:22;;;;;;;3.87;2.30;;;;;;;9.54;57.43;99339.28;10355578;28;20689;-38
2022/12/29 19:34:23;;;;;;;3.30;2.00;;;;;;;9.25;57.61;99355.34;10342135;28;20264;-38
2022/12/29 19:39:26;;;;;;;5.30;2.70;;;;;;;9.19;57.72;99340.91;10350541;28;20240;-38
2022/12/29 19:44:27;;;;;;;4.20;2.03;;;;;;;8.67;59.07;99310.63;10348961;28;20233;-38
2022/12/29 19:49:29;;;;;;;2.47;2.27;;;;;;;8.99;59.22;99328.16;10353875;28;20229;-38
2022/12/29 19:54:31;;;;;;;3.93;2.80;;;;;;;9.95;57.46;99317.31;10349272;28;20225;-38
2022/12/29 19:59:32;;;;;;;4.30;2.37;;;;;;;8.86;59.17;99351.97;10351731;28;20260;-38
2022/12/29 20:04:34;;;;;;;3.83;2.60;;;;;;;8.55;60.18;99354.78;10356102;28;20259;-38
2022/12/29 20:09:36;;;;;;;7.83;2.40;;;;;;;9.05;59.40;99358.59;10354604;28;20230;-38
2022/12/29 20:14:39;;;;;;;3.27;2.43;;;;;;;9.07;59.46;99369.91;10354393;28;20229;-38
2022/12/29 20:19:41;;;;;;;3.13;2.40;;;;;;;9.57;59.23;99338.91;10350843;28;20661;-38
2022/12/29 20:24:43;;;;;;;4.93;2.67;;;;;;;9.88;58.64;99313.75;10347961;28;20243;-37
2022/12/29 20:30:06;;;;;;;3.70;3.00;;;;;;;8.83;60.15;99389.66;10354012;28;20261;-37
2022/12/29 20:35:11;;;;;;;4.07;2.60;;;;;;;8.67;60.32;99399.50;10349846;28;20442;-38
2022/12/29 20:40:13;;;;;;;4.50;2.47;;;;;;;9.34;59.37;99365.75;10353124;28;20237;-38
2022/12/29 20:45:14;;;;;;;4.93;2.53;;;;;;;9.28;59.39;99405.72;10351631;28;20693;-38
2022/12/29 20:50:16;;;;;;;5.40;2.97;;;;;;;10.40;57.34;99380.44;10352117;28;20257;-38
2022/12/29 20:55:18;;;;;;;4.83;2.90;;;;;;;8.40;60.69;99421.41;10350570;28;20620;-38
2022/12/29 21:00:20;;;;;;;4.57;2.30;;;;;;;9.67;59.29;99373.34;10354711;28;20242;-38
2022/12/29 21:05:23;;;;;;;4.43;2.40;;;;;;;9.84;58.37;99390.00;10349369;28;20234;-38
2022/12/29 21:10:26;;;;;;;1.87;1.77;;;;;;;7.90;59.95;99415.59;10345312;28;20752;-38
2022/12/29 21:15:28;;;;;;;4.60;2.30;;;;;;;10.67;55.37;99462.56;10345373;28;20237;-38
2022/12/29 21:20:30;;;;;;;3.47;2.13;;;;;;;10.94;54.65;99500.31;10346906;28;20229;-38
2022/12/29 21:25:36;;;;;;;3.97;2.40;;;;;;;10.49;55.86;99486.28;10345020;28;20295;-38
2022/12/29 21:30:38;;;;;;;4.20;2.33;;;;;;;11.91;52.55;99565.69;10346182;28;20243;-37
2022/12/29 21:35:41;;;;;;;5.53;2.40;;;;;;;9.91;56.58;99518.34;10352451;28;20588;-38
2022/12/29 21:40:42;;;;;;;4.23;2.63;;;;;;;9.12;57.59;99533.03;10354176;28;20237;-38
2022/12/29 21:45:48;;;;;;;3.90;2.37;;;;;;;9.42;56.52;99522.41;10349021;28;20237;-38
2022/12/29 21:56:16;;;;;;;3.47;2.60;;;;;;;10.18;56.66;99514.16;10352602;28;20240;-38
2022/12/29 22:17:19;;;;;;;3.97;2.50;;;;;;;10.58;54.36;99594.84;10351237;28;20645;-38
2022/12/29 22:22:26;;;;;;;3.43;1.90;;;;;;;10.62;55.11;99595.31;10346244;28;20314;-38
2022/12/29 22:27:28;;;;;;;3.43;2.10;;;;;;;11.12;53.33;99640.91;10343288;28;20622;-38
2022/12/29 22:32:31;;;;;;;2.50;2.30;;;;;;;10.46;54.08;99642.66;10350644;28;20237;-38
2022/12/29 22:37:33;;;;;;;2.30;2.10;;;;;;;11.01;53.12;99655.66;10346270;28;20237;-38
2022/12/29 22:42:35;;;;;;;2.63;2.30;;;;;;;10.49;53.44;99671.69;10349593;28;20233;-38
2022/12/29 22:47:38;;;;;;;2.97;2.27;;;;;;;8.23;58.41;99621.44;10344027;28;20237;-38
2022/12/29 22:52:40;;;;;;;4.10;2.53;;;;;;;10.39;54.20;99664.97;10346786;28;20245;-38
2022/12/29 22:57:41;;;;;;;2.47;2.10;;;;;;;9.69;56.54;99675.91;10349026;28;20324;-38
2022/12/29 23:02:43;;;;;;;5.00;2.30;;;;;;;9.39;56.37;99683.00;10347499;28;20237;-38
2022/12/29 23:07:46;;;;;;;4.00;2.67;;;;;;;11.02;53.21;99686.78;10349274;28;20433;-38
2022/12/29 23:12:47;;;;;;;3.47;2.60;;;;;;;9.43;55.52;99696.81;10345887;28;20601;-38
2022/12/29 23:17:49;;;;;;;3.70;2.93;;;;;;;11.32;52.41;99708.06;10340284;28;20245;-38
2022/12/29 23:22:51;;;;;;;4.53;2.20;;;;;;;9.72;54.71;99696.91;10340154;28;20244;-38
2022/12/29 23:27:52;;;;;;;5.40;2.60;;;;;;;10.81;52.47;99698.25;10345512;28;20715;-38
2022/12/29 23:32:54;;;;;;;5.23;2.30;;;;;;;11.36;51.25;99717.41;10347103;28;20246;-38
2022/12/29 23:37:56;;;;;;;3.90;2.33;;;;;;;10.91;51.96;99693.44;10342078;28;20251;-38
2022/12/29 23:42:58;;;;;;;2.53;2.27;;;;;;;11.83;50.25;99733.91;10349740;28;20380;-39
2022/12/29 23:48:00;;;;;;;2.57;2.10;;;;;;;12.26;49.50;99744.53;10343862;28;20238;-38
2022/12/29 23:53:02;;;;;;;2.93;2.20;;;;;;;9.95;53.54;99702.22;10344061;28;20245;-38
2022/12/29 23:58:03;;;;;;;3.87;2.30;;;;;;;11.18;51.78;99699.91;10346252;28;20602;-38
